Time;durP1;ratioP1;P1;durP2;ratioP2;P2;SDS_P1;SDS_P2;PMS_P1;PMS_P2;Temp;Humidity;BMP_temperature;BMP_pressure;BME280_temperature;BME280_humidity;BME280_pressure;Samples;Min_cycle;Max_cycle;Signal;HPM_P1;HPM_P2
2021/07/07 00:00:34;;;;;;;5.60;3.53;;;21.90;99.90;;;;;;5024791;28;20220;-75
2021/07/07 00:03:01;;;;;;;5.70;3.87;;;22.00;99.90;;;;;;5015101;28;20650;-78
2021/07/07 00:05:27;;;;;;;5.73;3.80;;;22.10;99.90;;;;;;5031688;28;22999;-76
2021/07/07 00:07:53;;;;;;;6.93;3.67;;;22.10;99.90;;;;;;5022395;28;20625;-77
2021/07/07 00:10:20;;;;;;;3.83;3.30;;;22.20;99.90;;;;;;5040121;28;20219;-78
2021/07/07 00:12:48;;;;;;;5.93;3.80;;;22.20;99.90;;;;;;5021037;28;20180;-76
2021/07/07 00:15:20;;;;;;;4.87;3.63;;;22.20;99.90;;;;;;5037531;28;20189;-77
2021/07/07 00:17:48;;;;;;;4.27;3.53;;;22.20;99.90;;;;;;5025752;28;20196;-77
2021/07/07 00:20:17;;;;;;;4.60;3.57;;;22.20;99.90;;;;;;5026782;28;20249;-76
2021/07/07 00:22:44;;;;;;;7.13;3.83;;;22.30;99.90;;;;;;5042158;28;20200;-76
2021/07/07 00:25:11;;;;;;;6.07;3.40;;;22.30;99.90;;;;;;5021278;28;20273;-77
2021/07/07 00:27:38;;;;;;;7.13;3.80;;;22.30;99.90;;;;;;5006859;28;20216;-76
2021/07/07 00:30:07;;;;;;;5.50;3.30;;;22.40;99.90;;;;;;5021331;28;21055;-76
2021/07/07 00:32:34;;;;;;;8.67;3.37;;;22.50;99.90;;;;;;5008390;28;20538;-77
2021/07/07 00:35:00;;;;;;;5.43;3.60;;;22.50;99.90;;;;;;5032280;28;20266;-77
2021/07/07 00:37:26;;;;;;;6.93;3.30;;;22.50;99.90;;;;;;5022935;28;20200;-75
2021/07/07 00:39:53;;;;;;;5.60;3.60;;;22.50;99.90;;;;;;5036853;28;20266;-78
2021/07/07 00:42:19;;;;;;;4.13;3.40;;;22.40;99.90;;;;;;5040324;28;20188;-78
2021/07/07 00:44:45;;;;;;;3.93;3.27;;;22.50;99.90;;;;;;5028369;28;20678;-76
2021/07/07 00:47:11;;;;;;;9.20;3.47;;;22.50;99.90;;;;;;5025094;28;20225;-75
2021/07/07 00:49:40;;;;;;;4.07;3.00;;;22.50;99.90;;;;;;5031916;28;20223;-78
2021/07/07 00:52:08;;;;;;;5.57;3.40;;;22.60;99.90;;;;;;5025149;28;20181;-77
2021/07/07 00:54:35;;;;;;;4.60;3.10;;;22.70;99.90;;;;;;5021402;28;20184;-77
2021/07/07 00:57:03;;;;;;;3.70;3.00;;;22.70;99.90;;;;;;5023957;28;20205;-76
2021/07/07 00:59:31;;;;;;;4.30;3.30;;;22.60;99.90;;;;;;5022363;28;20193;-78
2021/07/07 01:02:01;;;;;;;5.97;3.37;;;22.60;99.90;;;;;;5041050;28;20517;-77
2021/07/07 01:04:27;;;;;;;4.47;3.37;;;22.50;99.90;;;;;;5007303;28;20203;-77
2021/07/07 01:06:53;;;;;;;5.43;3.13;;;22.50;99.90;;;;;;5016296;28;20216;-78
2021/07/07 01:09:20;;;;;;;3.47;2.97;;;22.50;99.90;;;;;;5022639;28;20212;-77
2021/07/07 01:11:46;;;;;;;4.33;3.10;;;22.50;99.90;;;;;;5038736;28;20184;-77
2021/07/07 01:14:13;;;;;;;3.30;3.00;;;22.50;99.90;;;;;;5025120;28;20192;-76
2021/07/07 01:16:45;;;;;;;4.63;3.30;;;22.40;99.90;;;;;;5023982;28;20279;-78
2021/07/07 01:19:14;;;;;;;4.87;3.10;;;22.30;99.90;;;;;;5032059;28;20188;-76
2021/07/07 01:21:52;;;;;;;6.17;3.23;;;22.40;99.90;;;;;;5039614;28;20199;-79
2021/07/07 01:24:20;;;;;;;3.73;3.27;;;22.40;99.90;;;;;;5020805;28;20704;-79
2021/07/07 01:26:48;;;;;;;2.90;2.70;;;22.50;99.90;;;;;;5024164;28;20216;-78
2021/07/07 01:29:15;;;;;;;4.93;2.67;;;22.40;99.90;;;;;;5042391;28;20188;-76
2021/07/07 01:31:45;;;;;;;4.23;2.50;;;22.30;99.90;;;;;;5024461;28;20192;-77
2021/07/07 01:34:12;;;;;;;2.63;2.23;;;22.40;99.90;;;;;;5010937;28;20188;-78
2021/07/07 01:36:39;;;;;;;4.53;2.17;;;22.40;99.90;;;;;;5031985;28;20253;-77
2021/07/07 01:39:09;;;;;;;5.53;2.10;;;22.40;99.90;;;;;;5036552;28;20188;-77
2021/07/07 01:41:36;;;;;;;3.30;2.40;;;22.40;99.90;;;;;;5025224;28;20192;-77
2021/07/07 01:44:03;;;;;;;6.90;2.27;;;22.50;99.90;;;;;;5022653;28;20191;-75
2021/07/07 01:46:29;;;;;;;5.70;2.00;;;22.50;99.90;;;;;;5025779;28;20208;-77
2021/07/07 01:48:55;;;;;;;3.43;1.67;;;22.60;99.90;;;;;;5021701;28;20672;-79
2021/07/07 01:51:22;;;;;;;5.20;1.70;;;22.50;99.90;;;;;;5042711;28;20194;-77
2021/07/07 01:53:49;;;;;;;2.57;1.77;;;22.50;99.90;;;;;;5024158;28;20176;-77
2021/07/07 01:56:15;;;;;;;4.90;1.77;;;22.40;99.90;;;;;;5042563;28;20199;-77
2021/07/07 01:58:42;;;;;;;4.50;1.93;;;22.40;99.90;;;;;;5025672;28;20908;-77
2021/07/07 02:01:08;;;;;;;2.40;1.70;;;22.40;99.90;;;;;;5012886;28;20318;-78
2021/07/07 02:03:34;;;;;;;5.07;2.00;;;22.40;99.90;;;;;;5021023;28;20247;-78
2021/07/07 02:06:01;;;;;;;6.07;1.70;;;22.40;99.90;;;;;;5023944;28;20212;-76
2021/07/07 02:08:28;;;;;;;4.63;1.60;;;22.40;99.90;;;;;;5012279;28;20192;-79
2021/07/07 02:10:55;;;;;;;3.10;1.53;;;22.40;99.90;;;;;;5006257;28;20514;-77
2021/07/07 02:13:23;;;;;;;4.17;1.83;;;22.30;99.90;;;;;;5040856;28;20266;-77
2021/07/07 02:15:49;;;;;;;2.97;1.80;;;22.30;99.90;;;;;;5021813;28;20275;-76
2021/07/07 02:18:15;;;;;;;2.67;1.90;;;22.30;99.90;;;;;;5010123;28;20197;-78
2021/07/07 02:20:46;;;;;;;3.23;1.70;;;22.30;99.90;;;;;;5026659;28;20242;-76
2021/07/07 02:23:14;;;;;;;4.90;2.30;;;22.30;99.90;;;;;;5021108;28;20197;-78
2021/07/07 02:25:44;;;;;;;5.90;1.80;;;22.30;99.90;;;;;;5022986;28;20200;-76
2021/07/07 02:28:13;;;;;;;2.97;1.67;;;22.30;99.90;;;;;;5024967;28;20224;-76
2021/07/07 02:30:42;;;;;;;3.80;1.87;;;22.30;99.90;;;;;;5027570;28;20679;-78
2021/07/07 02:33:09;;;;;;;7.00;1.97;;;22.20;99.90;;;;;;5026755;28;20208;-77
2021/07/07 02:35:40;;;;;;;8.33;1.90;;;22.20;99.90;;;;;;5023881;28;20552;-80
2021/07/07 02:38:10;;;;;;;9.80;2.20;;;22.20;99.90;;;;;;5021371;28;20191;-78
2021/07/07 02:40:38;;;;;;;4.77;1.70;;;22.20;99.90;;;;;;5016438;28;20187;-78
2021/07/07 02:43:06;;;;;;;4.07;1.77;;;22.20;99.90;;;;;;5038285;28;20198;-76
2021/07/07 02:45:35;;;;;;;2.93;1.90;;;22.10;99.90;;;;;;5037495;28;20208;-77
2021/07/07 02:48:04;;;;;;;5.33;1.87;;;22.20;99.90;;;;;;5022398;28;20275;-76
2021/07/07 02:50:31;;;;;;;3.50;1.80;;;22.10;99.90;;;;;;5036328;28;20184;-75
2021/07/07 02:52:57;;;;;;;1.70;1.60;;;22.10;99.90;;;;;;5026489;28;20184;-77
2021/07/07 02:55:24;;;;;;;3.20;1.83;;;22.10;99.90;;;;;;5037061;28;20751;-76
2021/07/07 02:57:58;;;;;;;5.83;1.70;;;22.10;99.90;;;;;;5009633;28;20204;-76
2021/07/07 03:00:47;;;;;;;2.20;1.57;;;22.10;99.90;;;;;;5024486;28;20199;-76
2021/07/07 03:03:18;;;;;;;3.73;1.83;;;22.10;99.90;;;;;;5026845;28;20242;-79
2021/07/07 03:05:59;;;;;;;2.37;1.73;;;22.10;99.90;;;;;;5023479;28;20278;-77
2021/07/07 03:08:31;;;;;;;4.23;1.97;;;22.10;99.90;;;;;;5035980;28;20234;-77
2021/07/07 03:10:59;;;;;;;2.17;1.60;;;22.10;99.90;;;;;;5023532;28;20180;-77
2021/07/07 03:13:27;;;;;;;4.33;1.90;;;22.10;99.90;;;;;;5009541;28;20184;-78
2021/07/07 03:15:54;;;;;;;3.43;1.83;;;22.20;99.90;;;;;;5024279;28;20199;-75
2021/07/07 03:18:21;;;;;;;8.23;1.90;;;22.20;99.90;;;;;;5024998;28;20279;-77
2021/07/07 03:20:50;;;;;;;5.33;1.60;;;22.20;99.90;;;;;;5014260;28;20180;-75
2021/07/07 03:23:19;;;;;;;2.73;1.77;;;22.20;99.90;;;;;;5038343;28;20203;-78
2021/07/07 03:25:47;;;;;;;2.33;1.67;;;22.20;99.90;;;;;;5041845;28;20211;-76
2021/07/07 03:28:14;;;;;;;2.00;1.80;;;22.20;99.90;;;;;;5030467;28;20649;-76
2021/07/07 03:30:40;;;;;;;8.70;2.17;;;22.30;99.90;;;;;;5025041;28;20187;-76
2021/07/07 03:33:07;;;;;;;4.27;2.00;;;22.30;99.90;;;;;;5026691;28;20188;-76
2021/07/07 03:35:33;;;;;;;7.87;2.30;;;22.30;99.90;;;;;;5026332;28;20192;-78
2021/07/07 03:38:00;;;;;;;5.17;2.13;;;22.40;99.90;;;;;;5024981;28;20184;-76
2021/07/07 03:40:30;;;;;;;4.27;2.30;;;22.40;99.90;;;;;;5019458;28;20572;-77
2021/07/07 03:42:58;;;;;;;3.93;2.23;;;22.50;99.90;;;;;;5037413;28;21002;-76
2021/07/07 03:45:26;;;;;;;5.27;2.60;;;22.50;99.90;;;;;;5043114;28;20208;-78
2021/07/07 03:47:54;;;;;;;6.70;2.40;;;22.60;99.90;;;;;;5024132;28;20726;-75
2021/07/07 03:50:22;;;;;;;3.20;2.60;;;22.60;99.90;;;;;;4991623;28;20651;-76
2021/07/07 03:52:49;;;;;;;4.63;2.80;;;22.60;99.90;;;;;;5024069;28;20279;-78
2021/07/07 03:55:20;;;;;;;6.63;2.70;;;22.70;99.90;;;;;;5038521;28;20734;-78
2021/07/07 03:57:47;;;;;;;4.27;2.80;;;22.60;99.90;;;;;;5044314;28;20533;-78
2021/07/07 04:00:22;;;;;;;3.67;2.70;;;22.60;99.90;;;;;;5027913;28;20196;-78
2021/07/07 04:02:50;;;;;;;4.40;2.60;;;22.60;99.90;;;;;;5043600;28;20188;-78
2021/07/07 04:05:16;;;;;;;4.90;2.80;;;22.60;99.90;;;;;;5046001;28;20188;-81
2021/07/07 04:07:45;;;;;;;5.53;2.60;;;22.60;99.90;;;;;;5036949;28;20260;-80
2021/07/07 04:10:13;;;;;;;5.33;2.50;;;22.60;99.90;;;;;;5056805;28;20188;-80
2021/07/07 04:12:42;;;;;;;3.97;2.90;;;22.70;99.90;;;;;;5039563;28;20184;-79
2021/07/07 04:15:11;;;;;;;4.40;2.87;;;22.70;99.90;;;;;;5040808;28;20195;-77
2021/07/07 04:17:37;;;;;;;5.10;2.97;;;22.70;99.90;;;;;;5033059;28;20193;-79
2021/07/07 04:20:08;;;;;;;7.27;2.83;;;22.70;99.90;;;;;;5032365;28;20194;-80
2021/07/07 04:22:36;;;;;;;6.43;2.93;;;22.70;99.90;;;;;;5042722;28;20199;-77
2021/07/07 04:25:06;;;;;;;3.53;2.57;;;22.70;99.90;;;;;;5024215;28;20203;-76
2021/07/07 04:27:32;;;;;;;6.20;2.93;;;22.80;99.90;;;;;;5023545;28;20216;-77
2021/07/07 04:29:59;;;;;;;3.07;2.50;;;22.80;99.90;;;;;;5023779;28;20192;-77
2021/07/07 04:32:25;;;;;;;3.80;2.60;;;22.90;99.90;;;;;;5022320;28;20306;-76
2021/07/07 04:34:53;;;;;;;5.33;2.50;;;22.90;99.90;;;;;;5029045;28;20629;-77
2021/07/07 04:37:19;;;;;;;6.27;2.70;;;22.90;99.90;;;;;;5022652;28;20218;-78
2021/07/07 04:39:45;;;;;;;3.30;2.70;;;23.00;99.90;;;;;;5024451;28;20250;-79
2021/07/07 04:42:12;;;;;;;5.30;2.80;;;23.00;99.90;;;;;;5034788;28;20200;-77
2021/07/07 04:44:38;;;;;;;4.10;2.60;;;23.10;99.90;;;;;;5016590;28;20195;-77
2021/07/07 04:47:05;;;;;;;4.90;3.07;;;23.10;99.90;;;;;;5039325;28;20308;-76
2021/07/07 04:49:31;;;;;;;4.03;2.70;;;23.10;99.90;;;;;;5026676;28;20773;-76
2021/07/07 04:51:58;;;;;;;2.90;2.40;;;23.20;99.90;;;;;;5023928;28;20263;-78
2021/07/07 04:54:24;;;;;;;2.60;2.40;;;23.20;99.90;;;;;;5026994;28;20188;-77
2021/07/07 04:56:51;;;;;;;4.30;2.30;;;23.30;99.90;;;;;;5051208;28;20286;-78
2021/07/07 04:59:17;;;;;;;4.43;2.43;;;23.30;99.90;;;;;;5022617;28;20200;-77
2021/07/07 05:01:43;;;;;;;2.63;2.43;;;23.40;99.90;;;;;;5038605;28;20675;-78
2021/07/07 05:04:10;;;;;;;4.10;2.30;;;23.40;99.90;;;;;;5022269;28;20196;-79
2021/07/07 05:06:38;;;;;;;5.93;2.53;;;23.40;99.90;;;;;;5042038;28;21029;-81
2021/07/07 05:09:04;;;;;;;3.20;2.50;;;23.40;99.90;;;;;;5050532;28;20268;-78
2021/07/07 05:11:30;;;;;;;3.10;2.50;;;23.50;99.90;;;;;;5024527;28;20188;-78
2021/07/07 05:13:57;;;;;;;3.20;2.08;;;23.50;99.90;;;;;;5033664;28;20801;-79
2021/07/07 05:16:24;;;;;;;5.03;2.40;;;23.60;99.90;;;;;;5026322;28;20204;-78
2021/07/07 05:18:50;;;;;;;2.67;2.17;;;23.80;99.90;;;;;;5028492;28;20203;-76
2021/07/07 05:21:16;;;;;;;3.93;2.30;;;23.80;99.90;;;;;;5021086;28;20216;-76
2021/07/07 05:23:43;;;;;;;5.07;2.40;;;23.80;99.90;;;;;;5038019;28;20200;-78
2021/07/07 05:26:11;;;;;;;4.88;2.20;;;23.80;99.90;;;;;;5022469;28;20262;-77
2021/07/07 05:28:38;;;;;;;2.40;2.20;;;23.80;99.90;;;;;;5024252;28;20192;-79
2021/07/07 05:31:06;;;;;;;3.90;2.20;;;23.80;99.90;;;;;;5041750;28;20289;-78
2021/07/07 05:33:34;;;;;;;7.63;2.50;;;23.80;99.90;;;;;;5035721;28;20188;-78
2021/07/07 05:36:07;;;;;;;3.92;2.55;;;23.80;99.90;;;;;;5023646;28;20196;-78
2021/07/07 05:38:36;;;;;;;2.90;2.60;;;23.80;99.90;;;;;;5021250;28;20632;-75
2021/07/07 05:41:04;;;;;;;4.00;2.80;;;23.90;99.90;;;;;;5024931;28;20197;-78
2021/07/07 05:43:31;;;;;;;4.40;2.30;;;24.20;99.90;;;;;;5016971;28;20640;-78
2021/07/07 05:45:58;;;;;;;5.43;2.67;;;24.30;99.90;;;;;;5022430;28;20346;-76
2021/07/07 05:48:25;;;;;;;4.80;2.60;;;24.30;99.90;;;;;;5038088;28;20197;-78
2021/07/07 05:50:53;;;;;;;3.53;2.50;;;24.40;99.90;;;;;;5021433;28;20334;-79
2021/07/07 05:53:20;;;;;;;5.30;2.60;;;24.60;99.90;;;;;;5004780;28;20188;-76
2021/07/07 05:55:46;;;;;;;6.72;2.60;;;24.60;99.90;;;;;;5025455;28;20203;-76
2021/07/07 05:58:18;;;;;;;5.20;2.30;;;24.90;99.90;;;;;;5042573;28;20227;-76
2021/07/07 06:00:45;;;;;;;5.55;2.70;;;25.00;99.90;;;;;;5022502;28;20302;-78
2021/07/07 06:03:11;;;;;;;4.07;2.60;;;25.00;99.90;;;;;;5038407;28;20253;-76
2021/07/07 06:05:38;;;;;;;4.85;2.90;;;25.10;99.90;;;;;;5035948;28;20267;-78
2021/07/07 06:08:06;;;;;;;4.07;2.80;;;25.60;99.90;;;;;;5022064;28;20676;-78
2021/07/07 06:10:32;;;;;;;10.23;2.88;;;25.60;99.90;;;;;;5023868;28;20200;-76
2021/07/07 06:12:59;;;;;;;5.20;2.95;;;25.50;99.90;;;;;;5023598;28;20605;-78
2021/07/07 06:15:26;;;;;;;5.78;3.10;;;25.60;99.90;;;;;;5028621;28;20180;-78
2021/07/07 06:17:53;;;;;;;5.80;3.08;;;25.80;99.90;;;;;;5023293;28;20192;-76
2021/07/07 06:20:20;;;;;;;8.38;3.22;;;25.80;99.90;;;;;;5010013;28;20184;-77
2021/07/07 06:22:46;;;;;;;7.00;3.42;;;25.70;99.90;;;;;;5019955;28;20196;-77
2021/07/07 06:25:15;;;;;;;4.22;3.13;;;25.90;99.90;;;;;;5022064;28;20203;-76
2021/07/07 06:27:41;;;;;;;6.35;3.83;;;26.10;99.90;;;;;;5027409;28;20211;-75
2021/07/07 06:30:12;;;;;;;7.93;3.33;;;26.00;99.90;;;;;;5018396;28;20191;-77
2021/07/07 06:32:39;;;;;;;6.63;3.53;;;25.80;99.90;;;;;;5024075;28;20185;-78
2021/07/07 06:35:07;;;;;;;9.00;2.75;;;26.00;99.90;;;;;;5038402;28;20797;-76
2021/07/07 06:37:33;;;;;;;5.35;3.72;;;26.10;99.90;;;;;;5023825;28;20712;-78
2021/07/07 06:40:03;;;;;;;7.97;3.70;;;26.20;99.90;;;;;;5025223;28;20192;-78
2021/07/07 06:42:30;;;;;;;6.88;2.90;;;26.20;99.90;;;;;;5027663;28;20206;-76
2021/07/07 06:44:58;;;;;;;6.38;3.60;;;26.00;99.90;;;;;;5023736;28;20220;-78
2021/07/07 06:47:25;;;;;;;7.22;3.38;;;26.30;99.90;;;;;;5036685;28;20300;-76
2021/07/07 06:49:51;;;;;;;5.68;3.97;;;26.50;99.90;;;;;;5030869;28;20200;-76
2021/07/07 06:52:19;;;;;;;7.18;3.65;;;26.50;99.90;;;;;;5051397;28;20212;-78
2021/07/07 06:54:46;;;;;;;7.32;3.83;;;26.60;99.90;;;;;;5035586;28;20659;-75
2021/07/07 06:57:13;;;;;;;3.67;3.20;;;26.70;99.90;;;;;;5029269;28;20542;-77
2021/07/07 06:59:39;;;;;;;7.25;3.10;;;26.70;99.90;;;;;;5031510;28;20184;-76
2021/07/07 07:02:05;;;;;;;5.78;3.60;;;26.80;99.90;;;;;;5045635;28;20197;-79
2021/07/07 07:04:32;;;;;;;7.72;3.38;;;26.90;99.90;;;;;;5028604;28;20877;-75
2021/07/07 07:06:59;;;;;;;7.18;3.30;;;27.00;99.90;;;;;;5042573;28;20211;-76
2021/07/07 07:09:27;;;;;;;9.85;3.33;;;27.10;99.90;;;;;;5028564;28;20208;-75
2021/07/07 07:11:54;;;;;;;5.88;3.13;;;27.00;99.90;;;;;;5031870;28;20188;-77
2021/07/07 07:14:20;;;;;;;7.07;3.40;;;27.10;99.90;;;;;;5023630;28;20215;-76
2021/07/07 07:16:47;;;;;;;9.52;3.33;;;27.20;99.90;;;;;;5018166;28;20846;-77
2021/07/07 07:19:14;;;;;;;6.75;3.85;;;27.10;99.90;;;;;;5037699;28;20585;-75
2021/07/07 07:21:41;;;;;;;7.65;3.20;;;27.20;99.90;;;;;;5024246;28;20228;-75
2021/07/07 07:24:08;;;;;;;8.30;3.30;;;27.20;99.90;;;;;;5019412;28;20802;-77
2021/07/07 07:26:36;;;;;;;9.00;3.47;;;27.30;99.90;;;;;;5023931;28;21032;-75
2021/07/07 07:29:05;;;;;;;6.05;3.60;;;27.20;99.90;;;;;;5027705;28;20628;-76
2021/07/07 07:31:32;;;;;;;9.38;3.55;;;27.20;99.90;;;;;;5020130;28;20188;-75
2021/07/07 07:33:58;;;;;;;4.00;3.10;;;27.40;99.90;;;;;;5036380;28;20641;-75
2021/07/07 07:36:25;;;;;;;5.05;3.20;;;27.50;99.90;;;;;;5023944;28;20192;-76
2021/07/07 07:38:59;;;;;;;5.38;3.22;;;27.50;99.90;;;;;;5024909;28;20687;-75
2021/07/07 07:41:38;;;;;;;5.75;3.60;;;27.70;99.90;;;;;;5020994;28;20211;-77
2021/07/07 07:44:09;;;;;;;7.63;3.45;;;27.80;99.90;;;;;;5038018;28;20188;-75
2021/07/07 07:46:36;;;;;;;8.65;3.17;;;27.80;99.90;;;;;;5017904;28;20335;-76
2021/07/07 07:49:04;;;;;;;6.72;3.40;;;27.90;99.90;;;;;;5021902;28;20183;-76
2021/07/07 07:51:31;;;;;;;3.97;3.10;;;27.80;99.90;;;;;;5023746;28;20917;-74
2021/07/07 07:54:00;;;;;;;7.22;3.30;;;27.70;99.90;;;;;;5037881;28;20212;-75
2021/07/07 07:56:27;;;;;;;8.50;3.65;;;27.90;99.90;;;;;;5023686;28;20845;-76
2021/07/07 07:58:54;;;;;;;5.65;3.67;;;27.90;99.90;;;;;;5020825;28;20301;-76
2021/07/07 08:01:22;;;;;;;6.80;3.30;;;28.10;99.90;;;;;;5023783;28;20721;-77
2021/07/07 08:03:48;;;;;;;9.13;3.40;;;28.10;99.90;;;;;;5039685;28;20188;-76
2021/07/07 08:06:15;;;;;;;5.85;3.35;;;28.10;99.90;;;;;;5047802;28;20224;-75
2021/07/07 08:08:42;;;;;;;7.18;3.40;;;28.10;99.90;;;;;;5038445;28;20177;-77
2021/07/07 08:11:09;;;;;;;5.75;3.20;;;28.30;99.90;;;;;;5026092;28;20525;-76
2021/07/07 08:13:37;;;;;;;5.40;3.42;;;28.20;99.90;;;;;;5024867;28;20189;-75
2021/07/07 08:16:05;;;;;;;5.35;3.00;;;28.30;99.90;;;;;;5015121;28;20622;-76
2021/07/07 08:18:31;;;;;;;4.63;2.85;;;28.60;99.90;;;;;;5023928;28;20180;-75
2021/07/07 08:20:57;;;;;;;11.00;3.42;;;28.40;99.90;;;;;;5023330;28;20898;-76
2021/07/07 08:23:25;;;;;;;5.50;3.13;;;28.60;99.90;;;;;;5029309;28;20180;-76
2021/07/07 08:25:52;;;;;;;9.13;3.42;;;28.50;99.90;;;;;;5040238;28;20216;-75
2021/07/07 08:28:19;;;;;;;5.13;3.58;;;28.70;99.90;;;;;;5029199;28;20690;-75
2021/07/07 08:30:45;;;;;;;6.38;3.28;;;28.60;99.90;;;;;;5043222;28;20280;-76
2021/07/07 08:33:13;;;;;;;5.68;3.47;;;28.70;99.90;;;;;;5043646;28;20211;-76
2021/07/07 08:35:39;;;;;;;6.60;3.20;;;28.80;99.90;;;;;;5040869;28;20216;-76
2021/07/07 08:38:06;;;;;;;9.25;3.70;;;28.90;99.90;;;;;;5039671;28;20207;-77
2021/07/07 08:40:34;;;;;;;8.68;3.63;;;28.80;99.90;;;;;;5030243;28;20228;-76
2021/07/07 08:43:02;;;;;;;6.82;3.70;;;28.70;99.90;;;;;;5036609;28;20920;-76
2021/07/07 08:45:29;;;;;;;6.15;4.00;;;28.70;99.90;;;;;;5027706;28;20210;-76
2021/07/07 08:47:55;;;;;;;9.93;3.78;;;28.80;99.90;;;;;;5025481;28;20213;-75
2021/07/07 08:50:34;;;;;;;9.38;3.70;;;28.80;99.90;;;;;;5021086;28;20199;-76
2021/07/07 08:53:04;;;;;;;10.80;3.75;;;28.80;99.90;;;;;;5022574;28;20992;-75
2021/07/07 08:55:31;;;;;;;5.82;3.25;;;28.90;99.90;;;;;;5044123;28;20282;-75
2021/07/07 08:58:00;;;;;;;10.40;3.78;;;29.00;99.90;;;;;;5031128;28;20184;-76
2021/07/07 09:00:39;;;;;;;7.93;3.40;;;29.10;99.90;;;;;;5027368;28;20192;-77
2021/07/07 09:03:13;;;;;;;8.85;3.88;;;29.20;99.90;;;;;;5026252;28;20274;-76
2021/07/07 09:05:49;;;;;;;7.70;3.70;;;29.10;99.90;;;;;;5028145;28;20190;-75
2021/07/07 09:08:24;;;;;;;9.20;3.95;;;29.10;99.90;;;;;;5015229;28;20287;-75
2021/07/07 09:10:50;;;;;;;8.07;3.60;;;29.40;99.90;;;;;;5026287;28;20241;-75
2021/07/07 09:13:18;;;;;;;7.97;3.60;;;29.20;99.90;;;;;;5041092;28;20200;-75
2021/07/07 09:15:45;;;;;;;7.07;3.60;;;29.20;99.90;;;;;;5036195;28;21278;-76
2021/07/07 09:18:33;;;;;;;6.30;3.45;;;29.20;99.90;;;;;;5041530;28;20196;-76
2021/07/07 09:21:01;;;;;;;9.85;3.30;;;29.20;99.90;;;;;;5032759;28;20235;-76
2021/07/07 09:23:30;;;;;;;5.95;3.22;;;29.40;99.90;;;;;;5038376;28;20212;-75
2021/07/07 09:26:00;;;;;;;6.07;3.25;;;29.30;99.90;;;;;;5029621;28;20188;-74
2021/07/07 09:28:30;;;;;;;10.68;3.58;;;29.40;99.90;;;;;;5039431;28;20552;-77
2021/07/07 09:31:04;;;;;;;10.27;3.55;;;29.60;99.90;;;;;;5023262;28;20188;-75
2021/07/07 09:33:42;;;;;;;4.18;3.13;;;29.60;99.90;;;;;;5021776;28;20187;-76
2021/07/07 09:36:25;;;;;;;5.63;3.13;;;29.60;99.90;;;;;;5006215;28;20183;-76
2021/07/07 09:38:54;;;;;;;8.43;3.40;;;29.70;99.90;;;;;;5040410;28;20191;-76
2021/07/07 09:41:21;;;;;;;8.07;3.65;;;29.80;99.90;;;;;;5031177;28;20275;-76
2021/07/07 09:43:53;;;;;;;4.45;3.10;;;29.80;99.90;;;;;;5043283;28;20271;-77
2021/07/07 09:46:23;;;;;;;6.03;3.70;;;29.90;99.90;;;;;;5024993;28;20238;-75
2021/07/07 09:48:53;;;;;;;5.70;3.60;;;30.00;99.90;;;;;;5026914;28;20191;-77
2021/07/07 09:51:20;;;;;;;4.85;3.33;;;30.10;99.90;;;;;;5029366;28;20196;-78
2021/07/07 09:53:48;;;;;;;9.15;3.30;;;29.90;99.90;;;;;;5025402;28;20219;-75
2021/07/07 09:56:14;;;;;;;14.13;4.00;;;30.00;99.90;;;;;;5030215;28;20196;-75
2021/07/07 09:58:40;;;;;;;5.75;2.95;;;30.00;99.90;;;;;;5025551;28;20215;-76
2021/07/07 10:01:07;;;;;;;7.18;3.55;;;30.20;99.90;;;;;;5010606;28;20211;-75
2021/07/07 10:03:34;;;;;;;10.25;3.40;;;30.30;99.90;;;;;;5019170;28;20184;-78
2021/07/07 10:06:02;;;;;;;6.68;3.55;;;30.40;99.90;;;;;;5027095;28;20211;-77
2021/07/07 10:08:30;;;;;;;6.13;3.22;;;30.40;99.90;;;;;;5042435;28;20191;-77
2021/07/07 10:11:00;;;;;;;10.38;3.42;;;30.60;99.90;;;;;;5040144;28;20187;-75
2021/07/07 10:13:31;;;;;;;8.25;3.47;;;30.50;99.90;;;;;;5025509;28;20184;-74
2021/07/07 10:15:58;;;;;;;8.65;3.28;;;30.70;99.90;;;;;;5013664;28;20185;-74
2021/07/07 10:18:27;;;;;;;6.57;3.45;;;30.70;99.90;;;;;;5039979;28;20189;-75
2021/07/07 10:20:55;;;;;;;4.78;3.38;;;30.80;99.90;;;;;;5024492;28;20193;-78
2021/07/07 10:23:24;;;;;;;7.25;4.10;;;30.90;99.90;;;;;;5001148;28;20192;-76
2021/07/07 10:25:53;;;;;;;7.53;3.75;;;30.80;99.90;;;;;;5020025;28;20195;-77
2021/07/07 10:28:21;;;;;;;7.45;3.67;;;31.00;99.90;;;;;;5020189;28;20615;-77
2021/07/07 10:31:00;;;;;;;7.63;3.80;;;30.90;99.90;;;;;;5026429;28;20227;-77
2021/07/07 10:33:33;;;;;;;9.80;3.88;;;30.80;99.90;;;;;;5039832;28;20275;-75
2021/07/07 10:36:24;;;;;;;8.05;3.50;;;30.90;99.90;;;;;;5029314;28;20262;-76
2021/07/07 10:39:02;;;;;;;7.25;3.30;;;31.20;99.90;;;;;;5021676;28;20189;-77
2021/07/07 10:41:47;;;;;;;8.30;3.85;;;31.30;99.90;;;;;;5020879;28;20837;-76
2021/07/07 10:44:23;;;;;;;8.48;3.40;;;31.40;99.90;;;;;;5022681;28;20191;-77
2021/07/07 10:47:02;;;;;;;7.97;3.70;;;31.40;99.90;;;;;;5038588;28;20223;-77
2021/07/07 10:49:38;;;;;;;8.18;3.70;;;31.40;99.90;;;;;;5039699;28;20199;-76
2021/07/07 10:52:08;;;;;;;8.65;3.65;;;31.30;99.90;;;;;;5037667;28;20187;-77
2021/07/07 10:54:45;;;;;;;8.93;3.97;;;31.40;99.90;;;;;;5020571;28;20629;-76
2021/07/07 10:57:24;;;;;;;7.43;3.83;;;31.60;99.90;;;;;;5016311;28;20199;-78
2021/07/07 10:59:56;;;;;;;7.00;3.80;;;31.50;99.90;;;;;;5028801;28;20298;-77
2021/07/07 11:02:27;;;;;;;7.47;3.70;;;31.40;99.90;;;;;;5024495;28;20275;-78
2021/07/07 11:04:58;;;;;;;8.00;4.05;;;31.40;99.90;;;;;;5026282;28;20192;-78
2021/07/07 11:07:39;;;;;;;7.40;4.03;;;31.40;99.90;;;;;;5024398;28;20220;-77
2021/07/07 11:10:22;;;;;;;6.70;3.75;;;31.60;99.90;;;;;;5027910;28;20712;-77
2021/07/07 11:12:55;;;;;;;8.60;4.40;;;31.40;99.90;;;;;;5038444;28;20639;-77
2021/07/07 11:15:25;;;;;;;10.00;3.60;;;31.20;99.90;;;;;;5026488;28;20294;-77
2021/07/07 11:17:58;;;;;;;12.05;4.78;;;31.20;99.90;;;;;;5037055;28;20785;-77
2021/07/07 11:20:30;;;;;;;5.90;3.97;;;31.30;99.90;;;;;;5038615;28;20219;-77
2021/07/07 11:23:09;;;;;;;8.18;3.95;;;31.30;99.90;;;;;;5034476;28;20708;-77
2021/07/07 11:25:39;;;;;;;6.43;3.38;;;31.40;99.90;;;;;;5013777;28;20238;-76
2021/07/07 11:28:16;;;;;;;13.15;3.70;;;31.40;99.90;;;;;;5022205;28;20958;-76
2021/07/07 11:30:43;;;;;;;8.70;3.92;;;31.40;99.90;;;;;;5021270;28;20188;-76
2021/07/07 11:33:10;;;;;;;12.90;3.83;;;31.30;99.90;;;;;;5017353;28;22220;-76
2021/07/07 11:35:41;;;;;;;8.52;3.97;;;31.40;99.90;;;;;;5023620;28;20231;-76
2021/07/07 11:38:20;;;;;;;7.03;3.58;;;31.40;99.90;;;;;;5000070;28;20196;-76
2021/07/07 11:40:52;;;;;;;8.70;3.88;;;31.40;99.90;;;;;;5024743;28;20401;-75
2021/07/07 11:43:30;;;;;;;7.20;3.70;;;31.30;99.90;;;;;;5027908;28;20203;-74
2021/07/07 11:46:12;;;;;;;8.38;3.78;;;31.30;99.90;;;;;;5041241;28;20221;-74
2021/07/07 11:51:15;;;;;;;7.85;3.90;;;31.40;99.90;;;;;;5022005;28;20743;-75
2021/07/07 11:53:48;;;;;;;10.45;4.07;;;31.40;99.90;;;;;;5025016;28;20655;-75
2021/07/07 11:56:19;;;;;;;10.40;3.72;;;31.30;99.90;;;;;;5016022;28;20649;-75
2021/07/07 11:58:57;;;;;;;7.70;3.80;;;31.30;99.90;;;;;;5043161;28;20184;-75
2021/07/07 12:01:32;;;;;;;5.95;3.60;;;31.40;99.90;;;;;;5024938;28;20571;-75
2021/07/07 12:04:15;;;;;;;9.77;3.78;;;31.50;99.90;;;;;;5045444;28;20180;-77
2021/07/07 12:06:59;;;;;;;8.05;4.03;;;31.50;99.90;;;;;;5027997;28;20791;-76
2021/07/07 12:09:31;;;;;;;7.32;3.95;;;31.40;99.90;;;;;;5028049;28;20203;-75
2021/07/07 12:12:09;;;;;;;8.40;4.40;;;31.40;99.90;;;;;;5030813;28;20190;-76
2021/07/07 12:14:42;;;;;;;7.90;3.85;;;31.50;99.90;;;;;;5032065;28;20188;-76
2021/07/07 12:17:17;;;;;;;12.85;4.25;;;31.60;99.90;;;;;;5030807;28;20264;-78
2021/07/07 12:19:51;;;;;;;10.88;4.30;;;31.50;99.90;;;;;;5030072;28;20188;-76
2021/07/07 12:22:22;;;;;;;8.70;4.00;;;31.50;99.90;;;;;;5029164;28;20200;-75
2021/07/07 12:24:54;;;;;;;8.40;3.83;;;31.50;99.90;;;;;;5025423;28;20216;-77
2021/07/07 12:27:31;;;;;;;8.48;4.18;;;31.60;99.90;;;;;;5021607;28;20314;-75
2021/07/07 12:30:00;;;;;;;7.80;4.15;;;31.70;99.90;;;;;;5009166;28;20542;-74
2021/07/07 12:32:29;;;;;;;7.68;3.90;;;31.60;99.90;;;;;;5023083;28;20653;-74
2021/07/07 12:34:59;;;;;;;7.50;3.78;;;31.60;99.90;;;;;;5042727;28;20191;-75
2021/07/07 12:37:28;;;;;;;6.35;3.38;;;31.40;99.90;;;;;;5041219;28;20199;-75
2021/07/07 12:39:59;;;;;;;7.35;3.70;;;31.40;99.90;;;;;;5030388;28;20199;-75
2021/07/07 12:42:36;;;;;;;8.43;3.95;;;31.30;99.90;;;;;;5026678;28;20185;-75
2021/07/07 12:45:11;;;;;;;7.75;3.97;;;31.50;99.90;;;;;;5040668;28;20192;-75
2021/07/07 12:47:40;;;;;;;8.18;3.70;;;31.60;99.90;;;;;;5030402;28;20311;-75
2021/07/07 12:50:22;;;;;;;7.68;3.67;;;31.60;99.90;;;;;;5042759;28;20291;-75
2021/07/07 12:52:50;;;;;;;4.55;3.25;;;31.60;99.90;;;;;;5026111;28;20237;-75
2021/07/07 12:55:27;;;;;;;10.43;3.97;;;31.60;99.90;;;;;;5025218;28;20272;-77
2021/07/07 12:58:03;;;;;;;6.47;3.63;;;31.70;99.90;;;;;;5018317;28;20858;-74